Time;durP1;ratioP1;P1;durP2;ratioP2;P2;SDS_P1;SDS_P2;PMS_P1;PMS_P2;Temp;Humidity;BMP_temperature;BMP_pressure;BME280_temperature;BME280_humidity;BME280_pressure;Samples;Min_cycle;Max_cycle;Signal;HPM_P1;HPM_P2
2023/01/17 00:02:12;;;;;;;1.43;0.60;;;;;;;2.30;100.00;93390.47;5044282;28;20116;-89
2023/01/17 00:10:25;;;;;;;1.23;0.50;;;;;;;2.29;100.00;93396.66;5043583;28;20036;-89
2023/01/17 00:13:08;;;;;;;1.83;0.53;;;;;;;2.31;100.00;93399.84;5053244;28;20479;-89
2023/01/17 00:15:36;;;;;;;;;;;;;;;2.24;100.00;93422.28;5036880;28;20037;-89
2023/01/17 00:18:17;;;;;;;1.40;0.50;;;;;;;2.06;100.00;93438.19;5036408;28;19963;-88
2023/01/17 00:26:17;;;;;;;1.40;0.57;;;;;;;0.84;100.00;93457.91;5044339;28;20044;-89
2023/01/17 01:34:05;;;;;;;2.73;0.97;;;;;;;0.31;100.00;93544.69;5052608;28;20483;-88
2023/01/17 01:36:31;;;;;;;2.10;1.10;;;;;;;0.33;100.00;93545.31;5028064;28;20766;-88
2023/01/17 01:38:56;;;;;;;2.57;1.13;;;;;;;0.30;100.00;93548.25;5036124;28;20497;-89
2023/01/17 01:41:40;;;;;;;2.97;0.97;;;;;;;0.33;100.00;93555.66;5032513;28;20621;-88
2023/01/17 01:44:43;;;;;;;2.87;0.97;;;;;;;0.31;100.00;93553.25;5052665;28;20064;-89
2023/01/17 01:47:12;;;;;;;2.37;0.93;;;;;;;0.33;100.00;93559.06;5016263;28;20999;-88
2023/01/17 01:49:53;;;;;;;1.80;0.90;;;;;;;0.35;100.00;93562.28;5043467;28;20467;-88
2023/01/17 01:52:23;;;;;;;2.10;0.97;;;;;;;0.39;100.00;93561.00;5039705;28;21011;-88
2023/01/17 01:54:59;;;;;;;2.10;1.00;;;;;;;0.40;100.00;93560.03;5050302;28;20467;-89
2023/01/17 01:57:33;;;;;;;5.30;1.57;;;;;;;0.42;100.00;93571.00;5026878;28;20547;-88
2023/01/17 02:00:03;;;;;;;3.33;1.27;;;;;;;0.39;100.00;93570.53;5030795;28;20463;-89
2023/01/17 02:02:38;;;;;;;2.60;1.20;;;;;;;0.38;100.00;93571.50;5046134;28;20428;-88
2023/01/17 02:05:04;;;;;;;2.10;1.00;;;;;;;0.38;100.00;93580.06;5035538;28;20451;-88
2023/01/17 02:07:40;;;;;;;2.60;1.33;;;;;;;0.43;100.00;93575.19;5025515;28;20444;-89
2023/01/17 02:10:06;;;;;;;7.17;2.50;;;;;;;0.42;100.00;93571.00;5046611;28;20566;-88
2023/01/17 02:12:32;;;;;;;2.00;1.13;;;;;;;0.35;100.00;93571.84;5055077;28;20556;-89
2023/01/17 02:14:58;;;;;;;3.63;1.63;;;;;;;0.42;100.00;93576.19;5057887;28;20048;-88
2023/01/17 02:17:39;;;;;;;2.93;1.40;;;;;;;0.39;100.00;93562.78;5039560;28;20455;-88
2023/01/17 02:20:19;;;;;;;5.07;1.80;;;;;;;0.39;100.00;93562.78;5039521;28;20499;-88
2023/01/17 02:23:12;;;;;;;4.73;2.47;;;;;;;0.34;100.00;93565.88;5039533;28;20467;-88
2023/01/17 02:25:41;;;;;;;2.20;1.08;;;;;;;0.39;100.00;93567.94;5035134;28;20552;-88
2023/01/17 02:28:33;;;;;;;3.20;1.60;;;;;;;0.39;100.00;93562.78;5064960;28;20032;-88
2023/01/17 02:31:08;;;;;;;3.60;1.70;;;;;;;0.38;100.00;93566.34;5057134;28;20495;-88
2023/01/17 02:33:49;;;;;;;4.10;1.73;;;;;;;0.35;100.00;93566.66;5029735;28;20472;-89
2023/01/17 02:36:24;;;;;;;3.73;2.00;;;;;;;0.35;100.00;93557.13;5031000;28;20467;-88
2023/01/17 02:38:56;;;;;;;3.90;2.10;;;;;;;0.43;100.00;93553.72;5031237;28;20542;-89
2023/01/17 02:41:29;;;;;;;3.53;1.87;;;;;;;0.33;100.00;93558.25;5035595;28;21054;-88
2023/01/17 02:43:54;;;;;;;4.88;1.98;;;;;;;0.32;100.00;93561.81;5035452;28;20475;-88
2023/01/17 02:46:20;;;;;;;4.63;2.23;;;;;;;0.22;100.00;93567.16;5056434;28;20110;-88
2023/01/17 02:48:47;;;;;;;4.60;2.00;;;;;;;0.10;100.00;93564.09;5052518;28;20108;-88
2023/01/17 02:51:15;;;;;;;4.67;1.90;;;;;;;0.04;100.00;93556.19;5037113;28;20525;-88
2023/01/17 02:53:53;;;;;;;7.47;2.33;;;;;;;0.10;100.00;93569.25;5061190;28;20566;-89
2023/01/17 02:56:22;;;;;;;5.53;2.13;;;;;;;0.11;100.00;93573.44;5047818;28;20472;-88
2023/01/17 02:59:09;;;;;;;5.93;2.20;;;;;;;0.17;100.00;93574.59;5067946;28;20478;-88
2023/01/17 03:02:13;;;;;;;4.33;1.90;;;;;;;0.09;100.00;93572.78;5039624;28;20538;-88
2023/01/17 03:04:55;;;;;;;4.28;2.15;;;;;;;0.18;100.00;93574.41;5053491;28;20498;-88
2023/01/17 03:07:25;;;;;;;5.17;2.10;;;;;;;0.22;100.00;93562.78;5036240;28;20079;-88
2023/01/17 03:10:03;;;;;;;5.90;2.40;;;;;;;0.22;100.00;93570.53;5064589;28;20474;-88
2023/01/17 03:12:32;;;;;;;6.13;2.13;;;;;;;0.38;100.00;93571.50;5058708;28;20470;-88
2023/01/17 03:15:13;;;;;;;4.63;2.30;;;;;;;0.27;100.00;93564.06;5041496;28;20459;-88
2023/01/17 03:17:45;;;;;;;5.30;1.90;;;;;;;0.29;100.00;93572.47;5044615;28;20440;-88
2023/01/17 03:20:11;;;;;;;4.20;2.00;;;;;;;0.23;100.00;93567.00;5022997;28;20670;-88
2023/01/17 03:22:38;;;;;;;4.37;1.90;;;;;;;0.23;100.00;93571.34;5028621;28;20477;-88
2023/01/17 03:25:07;;;;;;;6.47;2.03;;;;;;;0.28;100.00;93581.22;5033747;28;20451;-88
2023/01/17 03:27:34;;;;;;;4.07;1.83;;;;;;;0.17;100.00;93584.94;5038509;28;21050;-88
2023/01/17 03:30:00;;;;;;;3.87;2.13;;;;;;;0.32;100.00;93577.31;5039584;28;20476;-88
2023/01/17 03:32:26;;;;;;;4.70;2.10;;;;;;;0.26;100.00;93567.63;5043816;28;20873;-88
2023/01/17 03:34:52;;;;;;;6.00;1.93;;;;;;;0.39;100.00;93570.53;5042426;28;20455;-88
2023/01/17 03:37:18;;;;;;;5.17;2.10;;;;;;;0.42;100.00;93570.22;5041826;28;20500;-88
2023/01/17 03:39:43;;;;;;;3.73;1.83;;;;;;;0.42;100.00;93577.97;5045063;28;20123;-88
2023/01/17 03:42:11;;;;;;;3.37;1.90;;;;;;;0.33;100.00;93584.09;5029616;28;20063;-88
2023/01/17 03:44:37;;;;;;;5.83;2.07;;;;;;;0.36;100.00;93578.63;5036404;28;20033;-88
2023/01/17 03:47:03;;;;;;;4.97;2.27;;;;;;;0.31;100.00;93578.31;5048717;28;20851;-88
2023/01/17 03:49:28;;;;;;;4.97;1.50;;;;;;;0.34;100.00;93577.97;5035163;28;20033;-88
2023/01/17 03:51:54;;;;;;;2.73;1.60;;;;;;;0.29;100.00;93577.66;5038871;28;20041;-88
2023/01/17 03:54:20;;;;;;;4.90;2.20;;;;;;;0.27;100.00;93583.00;5047828;28;20495;-88
2023/01/17 03:56:46;;;;;;;4.77;1.90;;;;;;;0.35;100.00;93577.00;5037158;28;20025;-88
2023/01/17 03:59:17;;;;;;;4.67;1.87;;;;;;;0.26;100.00;93577.97;5020765;28;20134;-88
2023/01/17 04:01:43;;;;;;;4.13;1.83;;;;;;;0.30;100.00;93568.91;5037234;28;20086;-88
2023/01/17 04:04:08;;;;;;;5.67;2.40;;;;;;;0.25;100.00;93573.78;5037323;28;20533;-88
2023/01/17 04:06:34;;;;;;;4.57;1.70;;;;;;;0.19;100.00;93582.97;5036544;28;20049;-88
2023/01/17 04:09:00;;;;;;;4.70;2.00;;;;;;;0.23;100.00;93573.91;5032855;28;20025;-88
2023/01/17 04:11:25;;;;;;;3.13;1.50;;;;;;;0.39;100.00;93567.94;5050562;28;20037;-88
2023/01/17 04:14:19;;;;;;;3.43;1.70;;;;;;;0.34;100.00;93576.19;5049417;28;20028;-87
2023/01/17 04:16:45;;;;;;;4.55;1.65;;;;;;;0.31;100.00;93567.97;5051155;28;20033;-88
2023/01/17 04:19:12;;;;;;;5.10;1.70;;;;;;;0.26;100.00;93570.22;5049040;28;20044;-88
2023/01/17 04:21:38;;;;;;;5.10;2.00;;;;;;;0.31;100.00;93561.00;5052429;28;20020;-88
2023/01/17 04:24:04;;;;;;;3.93;1.83;;;;;;;0.29;100.00;93568.13;5027046;28;20471;-88
2023/01/17 04:26:29;;;;;;;4.93;1.80;;;;;;;0.33;100.00;93569.41;5048547;28;20029;-88
2023/01/17 04:28:55;;;;;;;6.60;2.23;;;;;;;0.40;100.00;93564.38;5038304;28;21242;-88
2023/01/17 04:31:21;;;;;;;4.10;1.83;;;;;;;0.36;100.00;93560.50;5037060;28;20036;-88
2023/01/17 04:33:46;;;;;;;3.77;2.03;;;;;;;0.35;100.00;93571.84;5036577;28;20041;-88
2023/01/17 04:36:12;;;;;;;4.30;1.80;;;;;;;0.36;100.00;93563.91;5029466;28;20384;-89
2023/01/17 04:38:43;;;;;;;4.93;1.90;;;;;;;0.17;100.00;93569.44;5039161;28;20025;-88
2023/01/17 04:41:09;;;;;;;3.67;1.70;;;;;;;0.22;100.00;93570.53;5053379;28;20029;-88
2023/01/17 04:43:41;;;;;;;3.63;1.57;;;;;;;0.26;100.00;93573.59;5033585;28;20460;-88
2023/01/17 04:46:08;;;;;;;3.07;1.63;;;;;;;0.32;100.00;93567.78;5052569;28;20032;-89
2023/01/17 04:48:35;;;;;;;4.37;1.57;;;;;;;0.38;100.00;93571.50;5018452;28;20529;-89
2023/01/17 04:51:01;;;;;;;7.13;3.70;;;;;;;0.30;100.00;93579.25;5047402;28;20499;-89
2023/01/17 04:53:31;;;;;;;6.93;2.80;;;;;;;0.26;100.00;93578.78;5058501;28;20459;-88
2023/01/17 04:55:57;;;;;;;3.23;1.50;;;;;;;0.21;100.00;93571.50;5033306;28;20472;-89
2023/01/17 04:58:44;;;;;;;4.00;1.70;;;;;;;0.23;100.00;93573.91;5052573;28;20459;-88
2023/01/17 05:01:18;;;;;;;6.40;2.00;;;;;;;0.23;100.00;93573.91;5047938;28;20524;-88
2023/01/17 05:03:44;;;;;;;3.93;1.60;;;;;;;0.18;100.00;93591.72;5029990;28;20735;-88
2023/01/17 05:06:09;;;;;;;5.50;2.00;;;;;;;0.23;100.00;93590.25;5053069;28;20827;-88
2023/01/17 05:08:35;;;;;;;6.27;2.27;;;;;;;0.21;100.00;93593.97;5036335;28;20041;-88
2023/01/17 05:11:01;;;;;;;6.10;2.13;;;;;;;0.23;100.00;93610.94;5036299;28;20517;-88
2023/01/17 05:13:27;;;;;;;8.03;2.30;;;;;;;0.25;100.00;93605.59;5052601;28;20082;-88
2023/01/17 05:15:53;;;;;;;12.83;6.90;;;;;;;0.28;100.00;93612.22;5037655;28;20371;-88
2023/01/17 05:18:18;;;;;;;13.67;6.83;;;;;;;0.29;100.00;93621.59;5026293;28;20025;-89
2023/01/17 05:20:44;;;;;;;6.43;2.77;;;;;;;0.11;100.00;93627.72;5048581;28;20059;-88
2023/01/17 05:23:14;;;;;;;9.60;4.37;;;;;;;0.03;100.00;93619.13;5030676;28;20044;-88
2023/01/17 05:25:43;;;;;;;8.50;3.67;;;;;;;0.21;100.00;93622.41;5039098;28;20119;-89
2023/01/17 05:28:20;;;;;;;5.10;2.30;;;;;;;-0.03;100.00;93613.66;5045031;28;20545;-88
2023/01/17 05:30:54;;;;;;;5.30;1.83;;;;;;;-0.09;100.00;93619.44;5050043;28;20479;-88
2023/01/17 05:33:20;;;;;;;4.57;1.80;;;;;;;-0.06;100.00;93620.91;5024118;28;20524;-88
2023/01/17 05:35:46;;;;;;;3.67;1.50;;;;;;;-0.13;100.00;93612.19;5035684;28;20447;-88
2023/01/17 05:38:12;;;;;;;3.67;1.60;;;;;;;-0.22;100.00;93610.53;5039880;28;20040;-88
2023/01/17 05:40:40;;;;;;;4.23;1.30;;;;;;;-0.22;100.00;93613.94;5057020;28;20449;-88
2023/01/17 05:43:05;;;;;;;3.43;1.23;;;;;;;-0.17;100.00;93606.50;5035521;28;20368;-88
2023/01/17 05:45:32;;;;;;;4.87;1.50;;;;;;;-0.16;100.00;93599.59;5035327;28;20462;-88
2023/01/17 05:48:19;;;;;;;3.90;1.20;;;;;;;-0.17;100.00;93603.91;5045246;28;20037;-88
2023/01/17 05:50:52;;;;;;;3.63;1.30;;;;;;;-0.25;100.00;93607.31;5060006;28;20475;-88
2023/01/17 05:53:18;;;;;;;4.93;1.42;;;;;;;-0.32;100.00;93601.16;5034225;28;20454;-88
2023/01/17 05:55:55;;;;;;;4.10;1.70;;;;;;;-0.35;100.00;93598.88;5024915;28;20037;-88
2023/01/17 05:58:21;;;;;;;4.37;1.30;;;;;;;-0.41;100.00;93596.94;5034693;28;20524;-88
2023/01/17 06:01:02;;;;;;;4.50;1.50;;;;;;;-0.52;100.00;93590.28;5042906;28;20474;-87
2023/01/17 06:03:28;;;;;;;4.00;1.97;;;;;;;-0.53;100.00;93595.63;5073234;28;20461;-87
2023/01/17 06:05:54;;;;;;;3.40;1.67;;;;;;;-0.54;100.00;93596.56;5051163;28;20452;-88
2023/01/17 06:08:23;;;;;;;4.27;2.53;;;;;;;-0.66;100.00;93595.25;5037294;28;20036;-88
2023/01/17 06:10:49;;;;;;;3.43;1.70;;;;;;;-0.65;100.00;93597.66;5043585;28;20037;-88
2023/01/17 06:13:19;;;;;;;5.20;2.70;;;;;;;-0.80;100.00;93594.88;5044303;28;20483;-88
2023/01/17 06:15:47;;;;;;;8.60;2.37;;;;;;;-0.91;100.00;93597.72;5030883;28;20415;-86
2023/01/17 06:18:23;;;;;;;4.83;1.93;;;;;;;-0.86;100.00;93605.00;5022963;28;21032;-91
2023/01/17 06:20:56;;;;;;;5.97;3.10;;;;;;;-0.88;100.00;93607.72;5046076;28;20506;-88
2023/01/17 06:23:34;;;;;;;5.45;3.22;;;;;;;-0.99;100.00;93602.84;5054248;28;20489;-88
2023/01/17 06:26:03;;;;;;;5.37;2.43;;;;;;;-0.92;100.00;93601.28;5029372;28;20045;-88
2023/01/17 06:28:29;;;;;;;3.93;2.53;;;;;;;-0.92;100.00;93596.09;5049182;28;20510;-88
2023/01/17 06:30:55;;;;;;;5.43;1.93;;;;;;;-0.74;100.00;93596.84;5032554;28;20567;-90
2023/01/17 06:33:20;;;;;;;3.63;1.80;;;;;;;-0.87;100.00;93595.63;5048568;28;20566;-89
2023/01/17 06:35:51;;;;;;;5.27;2.13;;;;;;;-0.96;100.00;93582.72;5045383;28;20035;-89
2023/01/17 06:38:18;;;;;;;7.80;2.63;;;;;;;-0.96;100.00;93587.06;5032817;28;20033;-89
2023/01/17 06:40:47;;;;;;;8.40;4.40;;;;;;;-1.19;100.00;93590.16;5047490;28;20950;-89
2023/01/17 06:43:14;;;;;;;7.90;3.93;;;;;;;-1.22;100.00;93589.66;5029818;28;20468;-89
2023/01/17 06:45:40;;;;;;;9.20;3.87;;;;;;;-1.20;100.00;93595.50;5050225;28;20428;-90
2023/01/17 06:48:06;;;;;;;6.70;3.50;;;;;;;-1.21;100.00;93606.75;5032494;28;20571;-89
2023/01/17 06:50:34;;;;;;;9.60;3.97;;;;;;;-1.19;100.00;93595.31;5029977;28;20040;-89
2023/01/17 06:53:03;;;;;;;7.70;4.10;;;;;;;-1.23;100.00;93586.28;5049012;28;20025;-88
2023/01/17 06:55:33;;;;;;;14.47;7.63;;;;;;;-1.11;100.00;93578.28;5034472;28;20483;-90
2023/01/17 06:58:02;;;;;;;7.20;3.93;;;;;;;-1.11;100.00;93576.50;5035446;28;20565;-90
2023/01/17 07:00:33;;;;;;;9.27;4.53;;;;;;;-1.22;100.00;93576.78;5054091;28;20447;-89
2023/01/17 07:02:59;;;;;;;8.67;4.57;;;;;;;-1.33;100.00;93571.91;5036376;28;20455;-89
2023/01/17 07:05:26;;;;;;;7.57;4.73;;;;;;;-1.49;100.00;93586.28;5040422;28;20454;-89
2023/01/17 07:07:52;;;;;;;11.63;6.00;;;;;;;-1.51;100.00;93593.38;5040560;28;20029;-90
2023/01/17 07:10:18;;;;;;;17.73;7.33;;;;;;;-1.59;100.00;93588.16;5040120;28;20895;-89
2023/01/17 07:12:44;;;;;;;13.90;7.53;;;;;;;-1.61;100.00;93599.56;5056878;28;20432;-89
2023/01/17 07:15:22;;;;;;;14.20;7.70;;;;;;;-1.64;100.00;93602.44;5040216;28;20139;-89
2023/01/17 07:18:04;;;;;;;13.40;6.10;;;;;;;-1.71;100.00;93602.22;5056747;28;20558;-90
2023/01/17 07:20:30;;;;;;;10.37;5.30;;;;;;;-1.74;100.00;93602.56;5039609;28;20465;-89
2023/01/17 07:23:47;;;;;;;24.83;14.10;;;;;;;-1.75;100.00;93599.13;5035778;28;20460;-89
2023/01/17 07:26:58;;;;;;;28.57;17.30;;;;;;;-1.72;100.00;93601.41;5050402;28;20029;-89
2023/01/17 07:33:25;;;;;;;11.47;5.67;;;;;;;-1.57;100.00;93593.97;5037249;28;20527;-89
2023/01/17 07:36:14;;;;;;;9.93;5.27;;;;;;;-1.45;100.00;93594.53;5032264;28;20517;-89
2023/01/17 07:38:42;;;;;;;9.97;4.63;;;;;;;-1.36;100.00;93601.34;5056069;28;20509;-89
2023/01/17 07:41:08;;;;;;;6.97;4.10;;;;;;;-1.32;100.00;93597.50;5055988;28;20543;-90
2023/01/17 07:44:13;;;;;;;8.47;3.83;;;;;;;-1.23;100.00;93591.44;5044110;28;20456;-90
2023/01/17 07:46:57;;;;;;;6.37;2.93;;;;;;;-1.24;100.00;93579.53;5061257;28;20029;-90
2023/01/17 07:49:32;;;;;;;6.07;2.87;;;;;;;-1.23;100.00;93586.28;5053404;28;20475;-89
2023/01/17 07:51:58;;;;;;;8.50;3.77;;;;;;;-1.25;100.00;93572.72;5050683;28;20478;-89
2023/01/17 07:54:23;;;;;;;7.67;3.50;;;;;;;-1.04;100.00;93566.38;5027906;28;20459;-89
2023/01/17 07:56:49;;;;;;;8.00;3.40;;;;;;;-1.00;100.00;93560.78;5028150;28;20048;-89
2023/01/17 07:59:16;;;;;;;10.13;4.50;;;;;;;-0.89;100.00;93561.47;5055759;28;20035;-89
2023/01/17 08:01:45;;;;;;;8.90;4.60;;;;;;;-0.61;100.00;93554.28;5053275;28;20499;-89
2023/01/17 08:04:12;;;;;;;9.37;4.13;;;;;;;-0.45;100.00;93545.78;5051649;28;20463;-90
2023/01/17 08:06:47;;;;;;;8.03;2.70;;;;;;;-0.14;100.00;93540.81;5036719;28;20454;-90
2023/01/17 08:09:53;;;;;;;6.40;2.80;;;;;;;0.38;100.00;93525.78;5055170;28;20473;-91
2023/01/17 08:12:19;;;;;;;5.83;2.10;;;;;;;0.64;100.00;93525.56;5037864;28;20471;-88
2023/01/17 08:14:44;;;;;;;6.57;2.17;;;;;;;1.31;100.00;93509.63;5055446;28;21030;-90
2023/01/17 08:24:55;;;;;;;9.90;5.07;;;;;;;2.40;100.00;93497.34;5052004;28;20562;-90
2023/01/17 08:28:12;;;;;;;11.30;5.30;;;;;;;2.20;100.00;93491.84;5055818;28;20564;-90
2023/01/17 08:30:38;;;;;;;11.57;4.63;;;;;;;2.62;100.00;93484.50;5026968;28;20484;-90
2023/01/17 08:33:08;;;;;;;9.07;4.17;;;;;;;3.28;100.00;93475.72;5019446;28;20522;-90
2023/01/17 08:35:34;;;;;;;7.90;3.43;;;;;;;3.77;100.00;93469.88;5019261;28;20104;-90
2023/01/17 08:38:03;;;;;;;9.27;4.20;;;;;;;2.59;100.00;93472.69;5035512;28;20037;-91
2023/01/17 08:40:32;;;;;;;8.77;4.23;;;;;;;3.44;100.00;93479.91;5018687;28;20033;-91
2023/01/17 08:43:24;;;;;;;15.87;9.60;;;;;;;3.39;100.00;93484.88;5032033;28;20037;-90
2023/01/17 08:46:00;;;;;;;11.20;5.90;;;;;;;3.15;100.00;93498.16;5034877;28;20500;-90
2023/01/17 08:48:29;;;;;;;13.40;6.10;;;;;;;3.23;100.00;93508.44;5034611;28;20037;-89
2023/01/17 09:06:11;;;;;;;8.03;3.67;;;;;;;2.34;100.00;93529.16;5032190;28;20048;-91
2023/01/17 09:09:17;;;;;;;8.63;3.33;;;;;;;2.47;100.00;93521.59;5035638;28;20029;-91
2023/01/17 09:11:43;;;;;;;10.57;3.30;;;;;;;2.29;100.00;93523.72;5017798;28;20502;-91
2023/01/17 09:14:11;;;;;;;8.37;3.43;;;;;;;2.83;100.00;93513.13;5018134;28;20095;-91
2023/01/17 09:16:38;;;;;;;10.07;4.53;;;;;;;3.52;100.00;93503.22;5034965;28;20025;-90
2023/01/17 09:19:22;;;;;;;9.70;4.17;;;;;;;3.88;100.00;93501.56;5018158;28;20435;-91
2023/01/17 09:22:05;;;;;;;9.07;4.00;;;;;;;4.16;100.00;93493.81;5042613;28;20025;-90
2023/01/17 09:24:41;;;;;;;6.47;3.35;;;;;;;3.81;100.00;93501.50;5038017;28;20079;-90
2023/01/17 09:27:19;;;;;;;8.37;3.70;;;;;;;3.74;100.00;93501.41;5038075;28;20037;-89
2023/01/17 09:33:32;;;;;;;8.73;3.80;;;;;;;4.24;100.00;93491.06;5055242;28;20083;-90
2023/01/17 09:36:04;;;;;;;8.53;4.03;;;;;;;3.69;100.00;93498.59;5054200;28;20037;-89
2023/01/17 09:38:50;;;;;;;44.50;8.65;;;;;;;4.07;100.00;93505.34;5053656;28;20142;-89
2023/01/17 09:41:28;;;;;;;8.87;3.10;;;;;;;3.61;100.00;93503.09;5046354;28;20091;-89
2023/01/17 09:44:36;;;;;;;24.43;5.00;;;;;;;4.07;100.00;93500.13;5049809;28;20044;-89
2023/01/17 09:47:28;;;;;;;13.87;2.53;;;;;;;3.70;100.00;93494.19;5027804;28;20049;-90
2023/01/17 09:53:20;;;;;;;8.03;2.90;;;;;;;3.69;100.00;93489.97;5066114;28;20041;-90
2023/01/17 09:56:08;;;;;;;7.63;2.27;;;;;;;4.86;100.00;93489.50;5055140;28;20119;-91
2023/01/17 09:59:19;;;;;;;7.07;2.63;;;;;;;5.15;100.00;93488.44;5042953;28;20048;-90
2023/01/17 10:02:10;;;;;;;5.10;1.97;;;;;;;4.76;100.00;93482.03;5037252;28;20127;-90
2023/01/17 10:04:38;;;;;;;5.43;1.80;;;;;;;4.59;100.00;93480.72;5055943;28;20049;-91
2023/01/17 10:07:23;;;;;;;6.40;1.77;;;;;;;5.05;100.00;93474.97;5057171;28;20048;-91
2023/01/17 10:10:20;;;;;;;4.80;1.77;;;;;;;5.07;100.00;93465.97;5052762;28;20029;-91
2023/01/17 10:13:20;;;;;;;5.00;1.80;;;;;;;5.62;100.00;93453.75;5052748;28;20103;-91
2023/01/17 10:15:48;;;;;;;7.03;1.83;;;;;;;5.33;100.00;93443.63;5033812;28;20566;-91
2023/01/17 10:18:21;;;;;;;5.93;1.60;;;;;;;5.86;100.00;93433.31;5031133;28;20041;-90
2023/01/17 10:21:02;;;;;;;7.88;2.08;;;;;;;6.25;100.00;93429.16;5049716;28;20554;-91
2023/01/17 10:23:27;;;;;;;4.67;1.60;;;;;;;7.02;100.00;93425.00;5050430;28;20083;-91
2023/01/17 10:26:43;;;;;;;4.50;1.27;;;;;;;6.71;100.00;93421.28;5035348;28;20479;-91
2023/01/17 10:29:17;;;;;;;2.87;1.07;;;;;;;6.81;100.00;93408.59;5053042;28;20033;-91
2023/01/17 10:31:57;;;;;;;3.27;1.47;;;;;;;7.32;93.28;93407.78;5036612;28;20041;-90
2023/01/17 10:34:38;;;;;;;4.20;1.47;;;;;;;7.66;87.27;93405.81;5020496;28;20050;-91
2023/01/17 10:37:40;;;;;;;2.37;1.00;;;;;;;7.73;78.58;93393.47;5034354;28;20109;-91
2023/01/17 10:40:29;;;;;;;7.97;3.17;;;;;;;7.64;80.23;93394.72;5040522;28;20127;-91
2023/01/17 10:43:27;;;;;;;5.93;1.70;;;;;;;8.79;70.99;93385.78;5040603;28;20044;-91
2023/01/17 10:45:55;;;;;;;8.00;1.90;;;;;;;8.19;72.29;93379.25;5040522;28;20037;-91
2023/01/17 10:48:42;;;;;;;5.50;2.23;;;;;;;7.68;81.48;93395.13;5034443;28;20025;-91
2023/01/17 10:51:58;;;;;;;5.53;2.30;;;;;;;7.79;81.31;93394.47;5046624;28;20057;-91
2023/01/17 10:54:49;;;;;;;8.17;5.03;;;;;;;6.97;71.60;93386.41;5039547;28;20047;-91
2023/01/17 10:57:21;;;;;;;8.10;3.10;;;;;;;7.92;63.81;93378.66;5053441;28;20045;-90
2023/01/17 10:59:51;;;;;;;9.13;3.80;;;;;;;8.24;63.09;93375.97;5040156;28;20508;-91
2023/01/17 11:06:21;;;;;;;4.87;1.73;;;;;;;9.48;56.91;93368.78;5056764;28;20036;-91
2023/01/17 11:09:04;;;;;;;5.27;2.00;;;;;;;7.48;61.16;93372.53;5031369;28;20109;-91
2023/01/17 11:11:34;;;;;;;5.60;1.63;;;;;;;7.46;62.36;93366.69;5041597;28;20122;-91
2023/01/17 11:14:25;;;;;;;9.43;2.03;;;;;;;7.72;68.55;93360.50;5034175;28;20025;-91
2023/01/17 11:17:02;;;;;;;4.60;1.70;;;;;;;8.32;63.88;93361.84;5027881;28;20092;-91
2023/01/17 11:19:34;;;;;;;3.90;1.30;;;;;;;8.35;58.04;93350.91;5026655;28;20038;-91
2023/01/17 11:22:04;;;;;;;4.07;1.27;;;;;;;8.77;60.08;93349.31;5043780;28;20034;-91
2023/01/17 11:24:40;;;;;;;4.90;1.77;;;;;;;8.00;61.76;93343.56;5040169;28;20065;-91
2023/01/17 11:27:27;;;;;;;5.30;1.97;;;;;;;8.21;63.90;93337.94;5032248;28;20086;-91
2023/01/17 11:30:44;;;;;;;7.80;2.40;;;;;;;7.13;63.47;93345.16;5042600;28;20120;-91
2023/01/17 11:33:52;;;;;;;5.97;1.93;;;;;;;7.48;60.84;93343.75;5035478;28;20052;-91
2023/01/17 11:36:23;;;;;;;6.40;3.00;;;;;;;7.04;65.13;93341.97;5044913;28;20033;-91
2023/01/17 11:39:26;;;;;;;8.53;4.73;;;;;;;7.09;67.75;93334.31;5042667;28;20036;-90
2023/01/17 11:41:56;;;;;;;15.17;7.37;;;;;;;7.64;60.28;93334.59;5044623;28;20079;-91
2023/01/17 11:44:29;;;;;;;11.93;5.97;;;;;;;7.40;63.08;93335.34;5041255;28;20033;-91
2023/01/17 11:47:18;;;;;;;5.55;2.95;;;;;;;7.36;61.30;93323.72;5075523;28;20044;-91
2023/01/17 11:49:46;;;;;;;6.27;1.90;;;;;;;7.62;53.18;93339.25;5016288;28;20041;-91
2023/01/17 11:55:52;;;;;;;6.37;2.00;;;;;;;8.69;53.72;93313.72;5062102;28;20075;-94
2023/01/17 11:58:19;;;;;;;8.33;2.90;;;;;;;7.93;52.09;93309.59;5048654;28;20090;-91
2023/01/17 12:00:52;;;;;;;3.93;1.70;;;;;;;8.03;54.90;93294.22;5051814;28;20022;-91
2023/01/17 12:03:49;;;;;;;4.35;1.70;;;;;;;7.43;55.81;93301.75;5044358;28;20143;-90
2023/01/17 12:10:24;;;;;;;7.60;2.57;;;;;;;7.90;54.38;93298.78;5036840;28;20498;-91
2023/01/17 12:16:52;;;;;;;3.80;1.97;;;;;;;6.92;55.42;93304.47;5048143;28;20095;-90
2023/01/17 12:19:37;;;;;;;5.30;2.00;;;;;;;7.18;56.86;93298.31;5058807;28;20042;-91
2023/01/17 12:22:59;;;;;;;6.00;2.20;;;;;;;7.23;55.74;93298.47;5050807;28;20129;-91
2023/01/17 12:25:33;;;;;;;6.00;1.70;;;;;;;7.27;56.42;93295.19;5053815;28;20044;-91
2023/01/17 12:28:44;;;;;;;6.47;1.97;;;;;;;7.11;59.89;93290.50;5034444;28;20033;-93
2023/01/17 12:31:13;;;;;;;4.10;1.37;;;;;;;6.60;60.12;93293.94;5029895;28;20104;-91
2023/01/17 12:34:01;;;;;;;4.20;1.77;;;;;;;6.07;61.88;93299.31;5037923;28;20034;-94
2023/01/17 12:40:34;;;;;;;5.50;1.83;;;;;;;5.87;71.12;93284.47;5054570;28;20055;-92
2023/01/17 12:43:28;;;;;;;5.47;2.27;;;;;;;6.01;70.46;93284.50;5037577;28;20032;-93
2023/01/17 12:45:55;;;;;;;5.70;2.07;;;;;;;5.62;70.67;93278.28;5049334;28;20037;-92
2023/01/17 12:52:20;;;;;;;6.07;2.57;;;;;;;5.28;78.78;93274.06;5052823;28;20567;-91
2023/01/17 12:54:56;;;;;;;6.90;2.70;;;;;;;5.22;77.15;93264.44;5051519;28;20465;-92
2023/01/17 12:57:33;;;;;;;6.27;2.33;;;;;;;5.32;80.81;93259.63;5058253;28;20485;-95
2023/01/17 13:00:28;;;;;;;6.83;3.17;;;;;;;5.67;80.74;93253.22;5021957;28;20036;-95
2023/01/17 13:03:35;;;;;;;7.77;3.37;;;;;;;4.92;77.78;93247.34;5015209;28;20529;-93
2023/01/17 13:06:02;;;;;;;11.77;3.13;;;;;;;5.27;83.17;93247.22;5031864;28;20459;-93
2023/01/17 13:08:42;;;;;;;7.90;2.17;;;;;;;5.23;83.65;93235.59;5039240;28;20061;-93
2023/01/17 13:11:24;;;;;;;5.53;2.67;;;;;;;4.16;88.93;93233.75;5030676;28;20037;-93
2023/01/17 13:13:51;;;;;;;6.17;2.30;;;;;;;4.31;93.82;93237.00;5047758;28;20056;-93
2023/01/17 13:16:32;;;;;;;8.07;2.73;;;;;;;3.97;96.91;93236.03;5031692;28;20057;-93
2023/01/17 13:19:11;;;;;;;7.37;2.60;;;;;;;3.48;100.00;93236.13;5016889;28;20521;-92
2023/01/17 13:21:56;;;;;;;6.50;2.60;;;;;;;3.51;100.00;93233.16;5049503;28;20037;-93
2023/01/17 13:24:48;;;;;;;7.33;2.70;;;;;;;3.57;100.00;93221.22;5034577;28;20034;-92
2023/01/17 13:27:41;;;;;;;6.27;2.73;;;;;;;3.40;100.00;93218.91;5030580;28;20509;-92
2023/01/17 13:30:14;;;;;;;8.43;3.10;;;;;;;3.26;100.00;93215.41;5030303;28;20103;-93
2023/01/17 13:33:30;;;;;;;9.88;2.83;;;;;;;2.91;100.00;93219.72;5048582;28;20036;-92
2023/01/17 13:36:33;;;;;;;8.63;3.73;;;;;;;3.06;100.00;93206.69;5036780;28;20094;-93
2023/01/17 13:39:36;;;;;;;9.10;3.10;;;;;;;2.66;100.00;93206.34;5026344;28;20061;-93
2023/01/17 13:42:04;;;;;;;7.43;2.83;;;;;;;2.49;100.00;93210.16;5048398;28;20055;-92
2023/01/17 13:44:30;;;;;;;7.40;2.93;;;;;;;2.58;100.00;93199.47;5055788;28;20020;-93
2023/01/17 13:47:26;;;;;;;6.40;3.23;;;;;;;2.87;100.00;93199.53;5035754;28;20033;-91
2023/01/17 13:49:55;;;;;;;8.70;3.57;;;;;;;2.68;100.00;93199.16;5035228;28;20079;-93
2023/01/17 13:52:22;;;;;;;9.07;3.63;;;;;;;2.66;100.00;93190.78;5035912;28;20509;-93
2023/01/17 13:54:55;;;;;;;7.03;3.03;;;;;;;2.26;100.00;93192.16;5052068;28;20064;-93
2023/01/17 13:57:24;;;;;;;8.87;3.30;;;;;;;2.33;100.00;93183.47;5035618;28;20439;-93
2023/01/17 13:59:54;;;;;;;8.17;3.03;;;;;;;2.46;100.00;93171.63;5028432;28;20037;-93
2023/01/17 14:02:32;;;;;;;11.40;3.03;;;;;;;2.47;100.00;93179.22;5033378;28;20495;-93
2023/01/17 14:05:41;;;;;;;8.93;3.70;;;;;;;2.71;100.00;93174.63;5027016;28;20042;-92
2023/01/17 14:08:20;;;;;;;7.03;3.17;;;;;;;2.47;100.00;93176.63;5037997;28;20032;-93
2023/01/17 14:11:12;;;;;;;7.77;3.00;;;;;;;2.42;100.00;93165.22;5026895;28;20066;-93
2023/01/17 14:13:45;;;;;;;6.40;2.05;;;;;;;2.44;100.00;93166.59;5041345;28;20098;-94
2023/01/17 14:16:27;;;;;;;8.47;3.00;;;;;;;2.41;100.00;93166.97;5056432;28;20552;-94
2023/01/17 14:19:24;;;;;;;8.97;2.90;;;;;;;2.39;100.00;93162.97;5026380;28;20482;-93
2023/01/17 14:22:20;;;;;;;7.27;2.50;;;;;;;2.27;100.00;93173.03;5042582;28;20029;-94
2023/01/17 14:25:13;;;;;;;8.07;2.87;;;;;;;2.21;100.00;93181.53;5040549;28;20072;-92
2023/01/17 14:27:42;;;;;;;8.57;2.65;;;;;;;2.11;100.00;93180.06;5057444;28;20123;-93